New Liberty, Colorado
Current Conditions -  °F | °C
As of 2:53 PM on Monday 22 Dec 2014 (Local Time) from KGJT Reporting Station
Overcast Overcast  
Wind Chill: 31°   Ceiling: 6000
Heat Index: 38°   Visibility: 10mi
Dew Point: 32°   Wind: 10mph
Humidity: 79%   Direction: 20°NNE
Pressure: 29.78"   Gusts: NA
Location:  39.2664°N, 108.95°W
Report Text: KGJT 222153Z 02009KT 10SM SCT040 BKN060 OVC080 03/00 A2978 RMK AO2 UPB03E05RAB05E45 SLP085 P0000 T00330000
Loading
Personal Weather Stations






























Interactive Weather Map New forecast layout! Learn more

10-Day Weather Forecast

Advertisements
Track Severe Weather on mobile